createdAt,value
2018-08-04T00:00:56.609Z,10.30
2018-08-04T00:04:01.097Z,11.17
2018-08-04T00:07:05.543Z,11.00
2018-08-04T00:10:16.996Z,10.63
2018-08-04T00:13:21.517Z,11.10
2018-08-04T00:16:26.265Z,11.27
2018-08-04T00:19:30.835Z,10.60
2018-08-04T00:22:35.328Z,10.83
2018-08-04T00:25:40.109Z,11.20
2018-08-04T00:28:44.996Z,11.37
2018-08-04T00:31:49.632Z,10.77
2018-08-04T00:34:54.359Z,11.20
2018-08-04T00:37:58.867Z,10.53
2018-08-04T00:41:03.593Z,10.80
2018-08-04T00:44:08.177Z,11.70
2018-08-04T00:47:12.603Z,10.50
2018-08-04T00:50:17.090Z,11.10
2018-08-04T00:53:21.655Z,10.07
2018-08-04T00:56:26.386Z,9.77
2018-08-04T00:59:30.674Z,10.40
2018-08-04T01:02:34.686Z,9.90
2018-08-04T01:05:39.389Z,9.93
2018-08-04T01:08:44.962Z,10.30
2018-08-04T01:11:49.752Z,9.80
2018-08-04T01:14:54.546Z,10.20
2018-08-04T01:17:59.104Z,10.43
2018-08-04T01:21:03.838Z,10.30
2018-08-04T01:24:08.536Z,9.83
2018-08-04T01:27:13.415Z,10.50
2018-08-04T01:30:17.657Z,11.03
2018-08-04T01:33:22.656Z,11.17
2018-08-04T01:36:27.580Z,10.43
2018-08-04T01:39:32.236Z,9.73
2018-08-04T01:42:36.984Z,11.23
2018-08-04T01:45:41.803Z,10.50
2018-08-04T01:48:47.013Z,10.53
2018-08-04T01:51:51.559Z,11.03
2018-08-04T01:54:56.010Z,10.50
2018-08-04T01:58:00.759Z,11.80
2018-08-04T02:01:05.486Z,11.10
2018-08-04T02:04:10.277Z,10.87
2018-08-04T02:07:15.207Z,9.73
2018-08-04T02:10:19.784Z,10.00
2018-08-04T02:13:24.129Z,11.30
2018-08-04T02:16:28.657Z,11.50
2018-08-04T02:19:33.144Z,11.67
2018-08-04T02:22:37.474Z,11.13
2018-08-04T02:25:42.328Z,10.37
2018-08-04T02:28:47.068Z,11.53
2018-08-04T02:31:52.000Z,11.13
2018-08-04T02:34:56.706Z,10.97
2018-08-04T02:38:01.994Z,10.97
2018-08-04T02:41:06.816Z,11.10
2018-08-04T02:44:11.450Z,10.50
2018-08-04T02:47:16.610Z,11.27
2018-08-04T02:50:21.429Z,10.57
2018-08-04T02:53:26.164Z,11.23
2018-08-04T02:56:30.768Z,12.07
2018-08-04T02:59:35.705Z,11.40
2018-08-04T03:02:40.363Z,10.50
2018-08-04T03:05:44.508Z,10.60
2018-08-04T03:08:49.242Z,11.27
2018-08-04T03:11:53.827Z,12.23
2018-08-04T03:14:59.019Z,11.00
2018-08-04T03:18:03.604Z,11.57
2018-08-04T03:21:08.323Z,11.27
2018-08-04T03:24:13.204Z,11.53
2018-08-04T03:27:17.679Z,11.33
2018-08-04T03:30:22.482Z,10.87
2018-08-04T03:33:26.863Z,10.67
2018-08-04T03:36:31.661Z,11.13
2018-08-04T03:39:43.367Z,11.50
2018-08-04T03:42:48.242Z,11.30
2018-08-04T03:45:52.858Z,12.43
2018-08-04T03:48:57.240Z,12.33
2018-08-04T03:52:01.831Z,11.60
2018-08-04T03:55:06.481Z,12.30
2018-08-04T03:58:14.585Z,10.53
2018-08-04T04:01:19.159Z,11.03
2018-08-04T04:04:24.506Z,11.97
2018-08-04T04:07:29.399Z,12.30
2018-08-04T04:10:34.057Z,12.10
2018-08-04T04:13:39.046Z,11.87
2018-08-04T04:16:43.472Z,11.87
2018-08-04T04:19:47.909Z,11.30
2018-08-04T04:22:52.697Z,11.50
2018-08-04T04:25:57.189Z,11.20
2018-08-04T04:29:02.001Z,11.30
2018-08-04T04:32:07.425Z,12.20
2018-08-04T04:35:11.718Z,11.37
2018-08-04T04:38:16.043Z,11.97
2018-08-04T04:41:21.078Z,11.67
2018-08-04T04:44:25.596Z,11.80
2018-08-04T04:47:30.255Z,12.53
2018-08-04T04:50:35.201Z,12.00
2018-08-04T04:53:39.967Z,12.17
2018-08-04T04:56:44.576Z,12.63
2018-08-04T04:59:49.348Z,12.53
2018-08-04T05:02:53.673Z,12.87
2018-08-04T05:05:58.228Z,12.67
2018-08-04T05:09:03.452Z,12.37
2018-08-04T05:12:08.153Z,12.13
2018-08-04T05:15:12.691Z,12.47
2018-08-04T05:18:17.142Z,12.03
2018-08-04T05:21:22.866Z,11.57
2018-08-04T05:24:27.633Z,12.50
2018-08-04T05:27:32.609Z,11.50
2018-08-04T05:30:37.127Z,10.97
2018-08-04T05:33:41.597Z,12.50
2018-08-04T05:36:45.962Z,12.07
2018-08-04T05:39:50.918Z,12.10
2018-08-04T05:42:55.830Z,12.10
2018-08-04T05:46:00.461Z,12.93
2018-08-04T05:49:04.913Z,11.97
2018-08-04T05:52:09.291Z,12.83
2018-08-04T05:55:13.627Z,11.80
2018-08-04T05:58:18.834Z,12.33
2018-08-04T06:01:23.821Z,13.00
2018-08-04T06:04:28.050Z,12.43
2018-08-04T06:07:32.494Z,12.43
2018-08-04T06:10:37.269Z,12.57
2018-08-04T06:13:41.937Z,13.00
2018-08-04T06:16:46.363Z,12.40
2018-08-04T06:19:51.765Z,12.90
2018-08-04T06:22:57.721Z,12.17
2018-08-04T06:26:02.940Z,11.70
2018-08-04T06:29:07.462Z,12.63
2018-08-04T06:32:12.492Z,12.03
2018-08-04T06:35:17.416Z,11.63
2018-08-04T06:38:22.369Z,10.93
2018-08-04T06:41:27.288Z,11.83
2018-08-04T06:44:31.939Z,10.83
2018-08-04T06:47:37.086Z,11.18
2018-08-04T06:50:41.745Z,10.38
2018-08-04T06:53:46.362Z,9.90
2018-08-04T06:56:51.254Z,9.38
2018-08-04T06:59:56.567Z,9.65
2018-08-04T07:03:00.818Z,10.00
2018-08-04T07:06:05.713Z,10.43
2018-08-04T07:09:10.714Z,10.38
2018-08-04T07:12:15.433Z,9.98
2018-08-04T07:15:20.057Z,9.60
2018-08-04T07:18:24.409Z,9.08
2018-08-04T07:21:29.347Z,9.15
2018-08-04T07:24:33.977Z,9.30
2018-08-04T07:27:38.534Z,9.48
2018-08-04T07:30:44.361Z,8.55
2018-08-04T07:33:48.981Z,8.60
2018-08-04T07:36:53.462Z,8.33
2018-08-04T07:39:58.131Z,8.93
2018-08-04T07:43:03.008Z,9.83
2018-08-04T07:46:07.806Z,8.85
2018-08-04T07:49:12.362Z,8.15
2018-08-04T07:52:16.595Z,8.58
2018-08-04T07:55:20.900Z,8.13
2018-08-04T07:58:25.545Z,8.10
2018-08-04T08:01:30.213Z,8.08
2018-08-04T08:04:34.716Z,7.87
2018-08-04T08:07:39.331Z,8.43
2018-08-04T08:10:43.985Z,7.80
2018-08-04T08:13:48.308Z,8.28
2018-08-04T08:16:53.120Z,8.68
2018-08-04T08:19:57.784Z,8.40
2018-08-04T08:23:02.663Z,7.95
2018-08-04T08:26:10.796Z,8.78
2018-08-04T08:29:15.272Z,7.90
2018-08-04T08:32:19.948Z,8.25
2018-08-04T08:35:24.704Z,7.92
2018-08-04T08:38:29.798Z,8.48
2018-08-04T08:41:34.633Z,8.03
2018-08-04T08:44:39.396Z,7.90
2018-08-04T08:47:43.942Z,8.03
2018-08-04T08:50:48.628Z,7.75
2018-08-04T08:53:53.233Z,7.62
2018-08-04T08:56:57.989Z,7.75
2018-08-04T09:00:02.718Z,7.90
2018-08-04T09:03:07.597Z,7.42
2018-08-04T09:06:12.076Z,8.18
2018-08-04T09:09:16.896Z,7.60
2018-08-04T09:12:21.361Z,8.48
2018-08-04T09:15:25.933Z,7.95
2018-08-04T09:18:30.687Z,7.50
2018-08-04T09:21:35.766Z,7.90
2018-08-04T09:24:40.737Z,8.08
2018-08-04T09:27:45.342Z,7.85
2018-08-04T09:30:49.860Z,7.90
2018-08-04T09:33:54.637Z,7.85
2018-08-04T09:36:58.994Z,7.12
2018-08-04T09:40:03.891Z,6.75
2018-08-04T09:43:08.144Z,7.22
2018-08-04T09:46:12.570Z,7.78
2018-08-04T09:49:19.860Z,7.08
2018-08-04T09:52:24.283Z,7.28
2018-08-04T09:55:28.430Z,6.90
2018-08-04T09:58:32.645Z,7.50
2018-08-04T10:01:37.976Z,5.92
2018-08-04T10:04:43.209Z,5.80
2018-08-04T10:07:47.624Z,6.70
2018-08-04T10:10:52.134Z,5.80
2018-08-04T10:13:56.875Z,6.30
2018-08-04T10:17:01.714Z,5.62
2018-08-04T10:20:08.605Z,6.97
2018-08-04T10:23:12.873Z,6.00
2018-08-04T10:26:18.627Z,6.10
2018-08-04T10:29:23.147Z,5.55
2018-08-04T10:32:27.628Z,4.90
2018-08-04T10:35:32.277Z,5.53
2018-08-04T10:38:37.004Z,5.65
2018-08-04T10:41:41.431Z,5.70
2018-08-04T10:44:46.157Z,5.50
2018-08-04T10:47:50.495Z,5.28
2018-08-04T10:50:54.800Z,5.87
2018-08-04T10:53:59.242Z,5.15
2018-08-04T10:57:03.633Z,5.83
2018-08-04T11:00:09.802Z,5.90
2018-08-04T11:03:14.273Z,6.15
2018-08-04T11:06:18.673Z,5.58
2018-08-04T11:09:23.104Z,5.72
2018-08-04T11:12:28.834Z,5.78
2018-08-04T11:15:33.357Z,5.28
2018-08-04T11:18:38.662Z,6.10
2018-08-04T11:21:43.323Z,6.60
2018-08-04T11:24:47.947Z,6.33
2018-08-04T11:27:52.569Z,6.28
2018-08-04T11:30:57.326Z,6.03
2018-08-04T11:34:01.919Z,6.30
2018-08-04T11:37:06.609Z,6.10
2018-08-04T11:40:10.962Z,5.57
2018-08-04T11:43:16.107Z,6.27
2018-08-04T11:46:21.165Z,5.50
2018-08-04T11:49:25.562Z,5.97
2018-08-04T11:52:30.132Z,5.83
2018-08-04T11:55:34.753Z,5.73
2018-08-04T11:58:39.440Z,6.37
2018-08-04T12:01:43.925Z,6.13
2018-08-04T12:04:49.456Z,6.13
2018-08-04T12:07:54.273Z,5.90
2018-08-04T12:11:00.553Z,5.83
2018-08-04T12:14:05.308Z,5.97
2018-08-04T12:17:10.050Z,5.50
2018-08-04T12:20:14.602Z,6.63
2018-08-04T12:23:19.357Z,5.63
2018-08-04T12:26:23.870Z,6.07
2018-08-04T12:29:28.368Z,5.50
2018-08-04T12:32:32.794Z,6.33
2018-08-04T12:35:37.087Z,5.57
2018-08-04T12:38:41.387Z,6.47
2018-08-04T12:41:45.926Z,6.90
2018-08-04T12:44:50.904Z,6.63
2018-08-04T12:47:55.570Z,6.37
2018-08-04T12:51:01.705Z,5.80
2018-08-04T12:54:06.452Z,5.80
2018-08-04T12:57:11.025Z,6.57
2018-08-04T13:00:16.095Z,6.80
2018-08-04T13:03:20.933Z,6.13
2018-08-04T13:06:25.453Z,6.37
2018-08-04T13:09:30.109Z,6.63
2018-08-04T13:12:34.826Z,6.53
2018-08-04T13:15:39.512Z,6.50
2018-08-04T13:18:44.451Z,6.57
2018-08-04T13:21:51.052Z,6.57
2018-08-04T13:24:57.412Z,6.10
2018-08-04T13:28:03.120Z,5.97
2018-08-04T13:31:11.818Z,6.00
2018-08-04T13:34:17.186Z,6.60
2018-08-04T13:37:21.395Z,6.13
2018-08-04T13:40:25.437Z,6.47
2018-08-04T13:43:30.556Z,7.50
2018-08-04T13:46:34.837Z,6.17
2018-08-04T13:49:39.166Z,6.23
2018-08-04T13:52:43.405Z,6.43
2018-08-04T13:55:47.862Z,7.07
2018-08-04T13:58:52.125Z,5.73
2018-08-04T14:01:56.670Z,6.00
2018-08-04T14:05:01.126Z,6.40
2018-08-04T14:08:05.664Z,6.27
2018-08-04T14:11:10.154Z,5.80
2018-08-04T14:14:14.309Z,6.17
2018-08-04T14:17:18.426Z,5.33
2018-08-04T14:20:23.279Z,5.70
2018-08-04T14:23:27.399Z,5.90
2018-08-04T14:26:31.952Z,5.83
2018-08-04T14:29:36.026Z,6.27
2018-08-04T14:32:40.241Z,5.40
2018-08-04T14:35:44.472Z,6.23
2018-08-04T14:38:50.608Z,6.30
2018-08-04T14:41:55.039Z,6.30
2018-08-04T14:44:59.339Z,7.13
2018-08-04T14:48:03.956Z,6.27
2018-08-04T14:51:08.358Z,6.40
2018-08-04T14:54:12.651Z,6.40
2018-08-04T14:57:16.911Z,6.80
2018-08-04T15:00:22.041Z,6.77
2018-08-04T15:03:26.450Z,6.60
2018-08-04T15:06:30.825Z,6.57
2018-08-04T15:09:35.145Z,6.87
2018-08-04T15:12:39.316Z,6.57
2018-08-04T15:15:43.856Z,6.20
2018-08-04T15:18:48.200Z,6.17
2018-08-04T15:21:52.368Z,6.10
2018-08-04T15:24:56.864Z,5.83
2018-08-04T15:28:01.007Z,6.10
2018-08-04T15:31:05.854Z,5.47
2018-08-04T15:34:10.309Z,6.40
2018-08-04T15:37:14.730Z,6.80
2018-08-04T15:40:19.028Z,5.77
2018-08-04T15:43:23.383Z,6.13
2018-08-04T15:46:27.517Z,6.23
2018-08-04T15:49:31.841Z,6.33
2018-08-04T15:52:36.720Z,6.77
2018-08-04T15:55:41.160Z,5.83
2018-08-04T15:58:45.741Z,6.50
2018-08-04T16:01:49.911Z,5.47
2018-08-04T16:04:54.095Z,5.93
2018-08-04T16:07:58.661Z,5.80
2018-08-04T16:11:03.308Z,5.60
2018-08-04T16:14:09.319Z,5.63
2018-08-04T16:17:13.666Z,5.63
2018-08-04T16:20:19.705Z,5.80
2018-08-04T16:23:23.913Z,6.00
2018-08-04T16:26:28.293Z,5.70
2018-08-04T16:29:32.727Z,5.97
2018-08-04T16:32:37.512Z,5.67
2018-08-04T16:35:41.920Z,5.47
2018-08-04T16:38:46.268Z,5.63
2018-08-04T16:41:51.072Z,5.70
2018-08-04T16:44:55.504Z,5.80
2018-08-04T16:48:00.043Z,5.60
2018-08-04T16:51:04.223Z,5.43
2018-08-04T16:54:09.547Z,6.23
2018-08-04T16:57:13.890Z,5.93
2018-08-04T17:00:18.464Z,5.67
2018-08-04T17:03:23.090Z,5.13
2018-08-04T17:06:27.540Z,5.30
2018-08-04T17:09:32.110Z,5.23
2018-08-04T17:12:36.500Z,9.33
2018-08-04T17:15:41.046Z,6.07
2018-08-04T17:18:45.601Z,5.43
2018-08-04T17:21:50.176Z,5.90
2018-08-04T17:24:54.603Z,7.03
2018-08-04T17:27:58.984Z,6.23
2018-08-04T17:31:03.937Z,5.57
2018-08-04T17:34:08.172Z,5.77
2018-08-04T17:37:12.532Z,5.30
2018-08-04T17:40:16.817Z,5.10
2018-08-04T17:43:21.030Z,5.53
2018-08-04T17:46:25.550Z,4.70
2018-08-04T17:49:29.947Z,5.50
2018-08-04T17:52:34.299Z,5.70
2018-08-04T17:55:38.838Z,5.33
2018-08-04T17:58:43.150Z,4.70
2018-08-04T18:01:47.448Z,4.63
2018-08-04T18:04:52.017Z,5.00
2018-08-04T18:07:56.446Z,5.13
2018-08-04T18:11:00.688Z,4.97
2018-08-04T18:14:04.699Z,5.20
2018-08-04T18:17:09.587Z,6.17
2018-08-04T18:20:13.946Z,4.77
2018-08-04T18:23:18.360Z,5.17
2018-08-04T18:26:22.629Z,5.37
2018-08-04T18:29:27.203Z,5.03
2018-08-04T18:32:31.680Z,4.50
2018-08-04T18:35:36.036Z,4.37
2018-08-04T18:38:40.425Z,4.83
2018-08-04T18:41:44.948Z,4.80
2018-08-04T18:44:49.228Z,4.70
2018-08-04T18:47:53.479Z,4.60
2018-08-04T18:50:57.826Z,4.97
2018-08-04T18:54:02.025Z,5.17
2018-08-04T18:57:06.480Z,4.13
2018-08-04T19:00:11.060Z,4.20
2018-08-04T19:03:15.284Z,4.23
2018-08-04T19:06:19.489Z,4.87
2018-08-04T19:09:23.771Z,3.97
2018-08-04T19:12:28.117Z,4.57
2018-08-04T19:15:32.825Z,3.80
2018-08-04T19:18:37.010Z,3.37
2018-08-04T19:21:41.784Z,3.13
2018-08-04T19:24:46.038Z,2.70
2018-08-04T19:27:50.494Z,3.00
2018-08-04T19:30:54.716Z,2.90
2018-08-04T19:33:59.076Z,2.70
2018-08-04T19:37:03.418Z,3.20
2018-08-04T19:40:07.970Z,3.07
2018-08-04T19:43:13.313Z,3.10
2018-08-04T19:46:17.887Z,2.93
2018-08-04T19:49:22.064Z,4.20
2018-08-04T19:52:26.567Z,4.47
2018-08-04T19:55:30.883Z,3.50
2018-08-04T19:58:35.217Z,3.50
2018-08-04T20:01:39.605Z,2.97
2018-08-04T20:04:43.448Z,3.00
2018-08-04T20:07:47.603Z,3.27
2018-08-04T20:10:52.642Z,2.70
2018-08-04T20:13:57.062Z,2.80
2018-08-04T20:17:01.346Z,3.07
2018-08-04T20:20:05.814Z,3.13
2018-08-04T20:23:10.167Z,3.07
2018-08-04T20:26:14.603Z,2.80
2018-08-04T20:29:19.165Z,2.60
2018-08-04T20:32:23.393Z,3.17
2018-08-04T20:35:27.643Z,3.40
2018-08-04T20:38:32.020Z,3.20
2018-08-04T20:41:36.720Z,3.00
2018-08-04T20:44:41.416Z,3.27
2018-08-04T20:47:45.934Z,3.70
2018-08-04T20:50:50.598Z,3.47
2018-08-04T20:53:56.561Z,4.10
2018-08-04T20:57:05.199Z,3.43
2018-08-04T21:00:12.051Z,3.03
2018-08-04T21:03:16.319Z,3.83
2018-08-04T21:06:20.884Z,2.57
2018-08-04T21:09:25.344Z,2.40
2018-08-04T21:12:29.916Z,3.37
2018-08-04T21:15:34.248Z,2.93
2018-08-04T21:18:41.572Z,3.60
2018-08-04T21:21:46.275Z,3.73
2018-08-04T21:24:50.621Z,3.10
2018-08-04T21:27:54.931Z,3.07
2018-08-04T21:30:59.214Z,3.20
2018-08-04T21:34:03.194Z,3.60
2018-08-04T21:37:07.417Z,3.60
2018-08-04T21:40:11.717Z,4.03
2018-08-04T21:43:15.930Z,5.97
2018-08-04T21:46:20.553Z,3.77
2018-08-04T21:49:24.853Z,3.43
2018-08-04T21:52:29.200Z,3.33
2018-08-04T21:55:33.632Z,3.07
2018-08-04T21:58:38.091Z,3.07
2018-08-04T22:01:47.720Z,2.70
2018-08-04T22:04:52.272Z,3.83
2018-08-04T22:08:08.831Z,3.23
2018-08-04T22:11:13.081Z,3.43
2018-08-04T22:14:17.581Z,3.40
2018-08-04T22:17:21.828Z,3.13
2018-08-04T22:20:26.925Z,3.70
2018-08-04T22:23:31.460Z,3.20
2018-08-04T22:26:35.781Z,3.70
2018-08-04T22:29:40.030Z,3.83
2018-08-04T22:32:44.999Z,3.80
2018-08-04T22:35:49.910Z,3.30
2018-08-04T22:38:54.078Z,3.63
2018-08-04T22:41:58.345Z,3.20
2018-08-04T22:46:07.653Z,3.50
2018-08-04T22:49:11.832Z,2.83
2018-08-04T22:52:16.107Z,2.63
2018-08-04T22:55:21.013Z,3.30
2018-08-04T22:58:25.468Z,2.90
2018-08-04T23:01:29.651Z,7.10
2018-08-04T23:04:33.881Z,2.90
2018-08-04T23:07:38.299Z,3.33
2018-08-04T23:10:43.028Z,2.97
2018-08-04T23:13:47.935Z,2.70
2018-08-04T23:16:52.427Z,3.10
2018-08-04T23:19:56.585Z,2.70
2018-08-04T23:23:00.931Z,2.87
2018-08-04T23:26:05.385Z,3.17
2018-08-04T23:29:09.537Z,3.00
2018-08-04T23:32:13.681Z,2.70
2018-08-04T23:35:18.072Z,3.13
2018-08-04T23:38:22.338Z,3.50
2018-08-04T23:41:26.484Z,2.80
2018-08-04T23:44:31.138Z,2.90
2018-08-04T23:47:35.600Z,2.60
2018-08-04T23:50:39.843Z,2.90
2018-08-04T23:53:44.447Z,3.60
2018-08-04T23:56:48.765Z,2.87
2018-08-04T23:59:52.918Z,3.20
